Time;durP1;ratioP1;P1;durP2;ratioP2;P2;SDS_P1;SDS_P2;PMS_P1;PMS_P2;Temp;Humidity;BMP_temperature;BMP_pressure;BME280_temperature;BME280_humidity;BME280_pressure;Samples;Min_cycle;Max_cycle;Signal;HPM_P1;HPM_P2
2022/04/09 00:00:21;;;;;;;0.43;0.43;;;;;;;3.23;100.00;98671.94;5071719;28;20262;-71
2022/04/09 00:02:46;;;;;;;1.40;1.30;;;;;;;3.21;100.00;98674.16;5071926;28;20618;-73
2022/04/09 00:05:12;;;;;;;7.57;2.43;;;;;;;3.18;100.00;98674.75;5071788;28;20183;-72
2022/04/09 00:07:38;;;;;;;0.90;0.87;;;;;;;3.13;100.00;98683.75;5071442;28;20199;-71
2022/04/09 00:10:05;;;;;;;0.67;0.67;;;;;;;3.10;100.00;98683.59;5071396;28;20173;-71
2022/04/09 00:12:31;;;;;;;3.40;1.70;;;;;;;3.07;100.00;98687.69;5071647;28;20646;-71
2022/04/09 00:14:57;;;;;;;2.30;1.73;;;;;;;3.08;100.00;98685.78;5071270;28;20178;-72
2022/04/09 00:17:22;;;;;;;0.70;0.60;;;;;;;3.06;100.00;98696.09;5071000;28;20257;-72
2022/04/09 00:19:48;;;;;;;0.97;0.93;;;;;;;3.02;100.00;98705.88;5071091;28;20185;-72
2022/04/09 00:22:14;;;;;;;1.57;1.13;;;;;;;2.99;100.00;98701.91;5071092;28;20181;-74
2022/04/09 00:24:39;;;;;;;0.47;0.43;;;;;;;2.97;100.00;98704.09;5070686;28;20201;-73
2022/04/09 00:27:05;;;;;;;1.77;1.30;;;;;;;2.92;100.00;98702.31;5070755;28;20267;-72
2022/04/09 00:29:30;;;;;;;5.87;1.40;;;;;;;2.90;100.00;98715.31;5071008;28;20572;-72
2022/04/09 00:31:56;;;;;;;2.27;1.60;;;;;;;2.86;100.00;98706.22;5071069;28;20179;-72
2022/04/09 00:34:21;;;;;;;0.83;0.77;;;;;;;2.87;100.00;98718.59;5070987;28;20174;-72
2022/04/09 00:36:46;;;;;;;1.20;1.07;;;;;;;2.89;100.00;98719.13;5070784;28;20189;-73
2022/04/09 00:39:12;;;;;;;0.93;0.90;;;;;;;2.87;100.00;98726.69;5070476;28;20642;-71
2022/04/09 00:41:41;;;;;;;6.77;0.80;;;;;;;2.90;100.00;98722.63;5069582;28;20255;-72
2022/04/09 00:44:21;;;;;;;1.53;0.77;;;;;;;2.93;100.00;98730.09;5070793;28;20166;-71
2022/04/09 00:46:47;;;;;;;0.60;0.60;;;;;;;3.01;100.00;98734.75;5070503;28;20213;-71
2022/04/09 00:49:13;;;;;;;0.97;0.87;;;;;;;3.05;100.00;98734.97;5070817;28;20751;-74
2022/04/09 00:51:40;;;;;;;0.30;0.30;;;;;;;3.04;100.00;98739.56;5070761;28;20179;-72
2022/04/09 00:54:07;;;;;;;0.43;0.40;;;;;;;3.06;100.00;98744.66;5070823;28;20179;-71
2022/04/09 00:56:33;;;;;;;0.57;0.53;;;;;;;3.07;100.00;98749.75;5070680;28;20166;-72
2022/04/09 00:59:02;;;;;;;2.90;1.40;;;;;;;3.08;100.00;98754.03;5070671;28;20182;-71
2022/04/09 01:01:31;;;;;;;3.10;0.40;;;;;;;3.08;100.00;98756.75;5070637;28;20192;-73
2022/04/09 01:03:58;;;;;;;1.00;0.43;;;;;;;3.09;100.00;98761.03;5070626;28;20185;-71
2022/04/09 01:06:24;;;;;;;1.93;0.33;;;;;;;3.11;100.00;98771.50;5070338;28;20183;-72
2022/04/09 01:08:50;;;;;;;0.30;0.30;;;;;;;3.10;100.00;98775.31;5070224;28;20232;-72
2022/04/09 01:11:15;;;;;;;1.17;0.60;;;;;;;3.07;100.00;98776.72;5070582;28;20171;-72
2022/04/09 01:13:44;;;;;;;0.10;0.10;;;;;;;3.05;100.00;98775.44;5070410;28;20543;-71
2022/04/09 01:16:10;;;;;;;0.40;0.37;;;;;;;3.01;100.00;98777.91;5070870;28;20181;-72
2022/04/09 01:18:36;;;;;;;0.93;0.53;;;;;;;3.00;100.00;98776.31;5070522;28;20182;-72
2022/04/09 01:21:03;;;;;;;0.63;0.20;;;;;;;2.99;100.00;98793.59;5070717;28;20263;-71
2022/04/09 01:23:29;;;;;;;5.60;0.87;;;;;;;3.04;100.00;98790.00;5070370;28;20175;-72
2022/04/09 01:25:58;;;;;;;0.33;0.33;;;;;;;3.05;100.00;98797.81;5070516;28;20194;-72
2022/04/09 01:28:25;;;;;;;4.00;1.23;;;;;;;3.08;100.00;98804.50;5070282;28;20213;-71
2022/04/09 01:30:50;;;;;;;5.77;0.73;;;;;;;3.09;100.00;98806.09;5070501;28;20174;-70
2022/04/09 01:33:18;;;;;;;2.70;0.33;;;;;;;3.13;100.00;98809.78;5070808;28;20170;-72
2022/04/09 01:35:44;;;;;;;1.90;0.70;;;;;;;3.15;100.00;98811.06;5070397;28;20424;-73
2022/04/09 01:38:10;;;;;;;2.10;1.23;;;;;;;3.22;100.00;98810.66;5070378;28;20653;-71
2022/04/09 01:40:35;;;;;;;1.30;0.93;;;;;;;3.32;100.00;98820.44;5070402;28;20183;-74
2022/04/09 01:43:01;;;;;;;5.13;1.03;;;;;;;3.38;100.00;98820.03;5070450;28;20221;-73
2022/04/09 01:45:27;;;;;;;0.30;0.30;;;;;;;3.40;100.00;98823.22;5070277;28;20178;-72
2022/04/09 01:47:53;;;;;;;1.10;0.67;;;;;;;3.41;100.00;98829.41;5070109;28;20294;-74
2022/04/09 01:50:19;;;;;;;1.63;0.80;;;;;;;3.41;100.00;98834.81;5073998;28;20258;-72
2022/04/09 01:52:44;;;;;;;1.40;0.83;;;;;;;3.42;100.00;98834.50;5074213;28;20202;-72
2022/04/09 01:55:09;;;;;;;2.93;1.27;;;;;;;3.46;100.00;98840.09;5074521;28;20673;-71
2022/04/09 01:57:35;;;;;;;1.33;0.77;;;;;;;3.46;100.00;98848.97;5075997;28;20577;-71
2022/04/09 02:00:01;;;;;;;1.50;1.40;;;;;;;3.46;100.00;98843.59;5073969;28;20170;-71
2022/04/09 02:02:26;;;;;;;2.57;1.83;;;;;;;3.45;100.00;98850.09;5073868;28;20182;-71
2022/04/09 02:04:52;;;;;;;0.27;0.27;;;;;;;3.45;100.00;98855.50;5073765;28;20181;-71
2022/04/09 02:07:17;;;;;;;0.43;0.43;;;;;;;3.45;100.00;98860.88;5074023;28;20677;-71
2022/04/09 02:09:42;;;;;;;0.33;0.33;;;;;;;3.45;100.00;98863.59;5074322;28;20198;-71
2022/04/09 02:12:08;;;;;;;0.87;0.83;;;;;;;3.46;100.00;98859.78;5073961;28;20261;-71
2022/04/09 02:14:33;;;;;;;0.83;0.77;;;;;;;3.48;100.00;98868.41;5073624;28;20166;-71
2022/04/09 02:16:59;;;;;;;1.53;0.57;;;;;;;3.50;100.00;98877.00;5073422;28;20526;-72
2022/04/09 02:19:24;;;;;;;1.27;1.17;;;;;;;3.54;100.00;98879.88;5073423;28;20162;-71
2022/04/09 02:21:49;;;;;;;0.90;0.90;;;;;;;3.55;100.00;98873.38;5073508;28;20689;-71
2022/04/09 02:24:15;;;;;;;2.40;1.80;;;;;;;3.57;100.00;98890.88;5073019;28;20175;-72
2022/04/09 02:26:40;;;;;;;0.90;0.73;;;;;;;3.59;100.00;98888.66;5073289;28;20637;-72
2022/04/09 02:29:05;;;;;;;1.80;1.33;;;;;;;3.59;100.00;98899.47;5073293;28;20645;-73
2022/04/09 02:31:31;;;;;;;1.70;1.13;;;;;;;3.60;100.00;98897.56;5073357;28;20257;-71
2022/04/09 02:33:56;;;;;;;1.50;0.60;;;;;;;3.61;100.00;98901.06;5073279;28;20197;-71
2022/04/09 02:36:22;;;;;;;0.63;0.53;;;;;;;3.63;100.00;98912.38;5073233;28;20171;-71
2022/04/09 02:38:48;;;;;;;4.03;1.73;;;;;;;3.64;100.00;98922.06;5073102;28;20171;-72
2022/04/09 02:41:13;;;;;;;1.53;1.30;;;;;;;3.63;100.00;98918.56;5073512;28;20672;-71
2022/04/09 02:43:40;;;;;;;4.27;0.70;;;;;;;3.62;100.00;98927.78;5071799;28;20167;-71
2022/04/09 02:46:06;;;;;;;0.63;0.63;;;;;;;3.62;100.00;98935.06;5073016;28;20171;-71
2022/04/09 02:48:31;;;;;;;4.40;1.57;;;;;;;3.59;100.00;98937.25;5072620;28;20293;-72
2022/04/09 02:50:57;;;;;;;1.73;1.20;;;;;;;3.58;100.00;98935.66;5072788;28;20254;-74
2022/04/09 02:53:22;;;;;;;1.20;1.07;;;;;;;3.57;100.00;98947.56;5072852;28;20195;-71
2022/04/09 02:55:47;;;;;;;7.40;1.43;;;;;;;3.59;100.00;98953.47;5072839;28;20175;-72
2022/04/09 02:58:13;;;;;;;1.53;1.10;;;;;;;3.57;100.00;98969.16;5073005;28;20175;-73
2022/04/09 03:00:39;;;;;;;0.77;0.77;;;;;;;3.54;100.00;98972.47;5072116;28;20170;-72
2022/04/09 03:03:05;;;;;;;0.30;0.27;;;;;;;3.58;100.00;98967.25;5072771;28;20175;-73
2022/04/09 03:05:30;;;;;;;0.30;0.30;;;;;;;3.54;100.00;98971.69;5072632;28;20645;-71
2022/04/09 03:07:57;;;;;;;7.30;1.90;;;;;;;3.53;100.00;98984.38;5072337;28;20705;-71
2022/04/09 03:10:22;;;;;;;0.70;0.70;;;;;;;3.53;100.00;98981.69;5072405;28;20587;-71
2022/04/09 03:12:48;;;;;;;0.70;0.70;;;;;;;3.51;100.00;98981.19;5072347;28;20190;-72
2022/04/09 03:15:14;;;;;;;1.17;0.70;;;;;;;3.51;100.00;98993.88;5072267;28;20246;-72
2022/04/09 03:17:40;;;;;;;0.87;0.43;;;;;;;3.51;100.00;98991.97;5070883;28;20170;-71
2022/04/09 03:20:06;;;;;;;0.67;0.57;;;;;;;3.53;100.00;99003.28;5072469;28;20163;-72
2022/04/09 03:22:32;;;;;;;4.63;1.60;;;;;;;3.52;100.00;99006.28;5072596;28;20637;-72
2022/04/09 03:24:58;;;;;;;0.20;0.20;;;;;;;3.53;100.00;99015.97;5071904;28;20665;-73
2022/04/09 03:27:25;;;;;;;1.77;1.20;;;;;;;3.52;100.00;99022.47;5072205;28;20190;-71
2022/04/09 03:29:51;;;;;;;4.60;0.93;;;;;;;3.50;100.00;99036.28;5072212;28;20224;-71
2022/04/09 03:32:16;;;;;;;0.73;0.73;;;;;;;3.50;100.00;99024.69;5072495;28;20170;-72
2022/04/09 03:34:42;;;;;;;0.73;0.73;;;;;;;3.52;100.00;99031.38;5072042;28;20672;-74
2022/04/09 03:37:08;;;;;;;1.90;0.40;;;;;;;3.53;100.00;99032.97;5070788;28;20177;-71
2022/04/09 03:39:33;;;;;;;0.30;0.30;;;;;;;3.52;100.00;99034.06;5071235;28;20221;-73
2022/04/09 03:41:58;;;;;;;1.37;0.60;;;;;;;3.47;100.00;99031.50;5072017;28;20178;-70
2022/04/09 03:44:24;;;;;;;1.13;1.03;;;;;;;3.46;100.00;99026.34;5072392;28;20174;-72
2022/04/09 03:46:57;;;;;;;0.20;0.20;;;;;;;3.40;100.00;99046.47;5072413;28;20177;-71
2022/04/09 03:49:22;;;;;;;0.97;0.63;;;;;;;3.34;100.00;99042.28;5072398;28;20195;-72
2022/04/09 03:51:47;;;;;;;4.13;1.07;;;;;;;3.28;100.00;99046.94;5072352;28;20218;-72
2022/04/09 03:54:13;;;;;;;1.07;1.00;;;;;;;3.22;100.00;99050.84;5072207;28;20568;-72
2022/04/09 03:56:40;;;;;;;2.57;0.63;;;;;;;3.20;100.00;99056.53;5072153;28;20224;-71
2022/04/09 03:59:05;;;;;;;8.80;1.23;;;;;;;3.20;100.00;99053.03;5072036;28;20808;-73
2022/04/09 04:01:30;;;;;;;2.20;1.93;;;;;;;3.23;100.00;99060.53;5072113;28;20179;-71
2022/04/09 04:03:57;;;;;;;3.23;0.93;;;;;;;3.26;100.00;99063.44;5071967;28;20202;-71
2022/04/09 04:06:22;;;;;;;1.00;0.47;;;;;;;3.34;100.00;99053.06;5071584;28;20167;-71
2022/04/09 04:08:48;;;;;;;1.03;0.83;;;;;;;3.34;100.00;99053.88;5071691;28;20205;-73
2022/04/09 04:11:13;;;;;;;0.37;0.30;;;;;;;3.33;100.00;99062.25;5071880;28;20190;-71
2022/04/09 04:13:39;;;;;;;1.07;1.03;;;;;;;3.31;100.00;99064.44;5070992;28;20526;-72
2022/04/09 04:16:05;;;;;;;1.53;0.93;;;;;;;3.32;100.00;99076.84;5071533;28;20171;-72
2022/04/09 04:18:30;;;;;;;1.17;0.50;;;;;;;3.32;100.00;99087.63;5071076;28;20200;-72
2022/04/09 04:20:56;;;;;;;1.10;0.67;;;;;;;3.33;100.00;99090.06;5071457;28;20572;-74
2022/04/09 04:23:23;;;;;;;0.67;0.40;;;;;;;3.33;100.00;99084.66;5070733;28;20170;-74
2022/04/09 04:25:48;;;;;;;0.40;0.40;;;;;;;3.36;100.00;99099.44;5071121;28;20375;-72
2022/04/09 04:28:14;;;;;;;0.97;0.40;;;;;;;3.39;100.00;99115.06;5071033;28;20305;-72
2022/04/09 04:30:39;;;;;;;0.40;0.37;;;;;;;3.37;100.00;99109.16;5070846;28;20312;-72
2022/04/09 04:33:05;;;;;;;8.63;1.43;;;;;;;3.39;100.00;99129.34;5070937;28;20166;-72
2022/04/09 04:35:30;;;;;;;0.90;0.90;;;;;;;3.41;100.00;99134.44;5069551;28;20660;-72
2022/04/09 04:37:55;;;;;;;1.17;0.80;;;;;;;3.40;100.00;99130.94;5070653;28;20173;-72
2022/04/09 04:40:21;;;;;;;4.30;1.27;;;;;;;3.40;100.00;99139.03;5070969;28;20190;-73
2022/04/09 04:42:48;;;;;;;0.57;0.57;;;;;;;3.40;100.00;99141.75;5070983;28;20179;-72
2022/04/09 04:45:13;;;;;;;0.73;0.60;;;;;;;3.40;100.00;99149.84;5070767;28;20185;-73
2022/04/09 04:47:46;;;;;;;1.80;0.77;;;;;;;3.42;100.00;99144.16;5070670;28;20194;-72
2022/04/09 04:50:12;;;;;;;0.73;0.73;;;;;;;3.43;100.00;99159.25;5071067;28;20197;-74
2022/04/09 04:52:38;;;;;;;0.20;0.20;;;;;;;3.42;100.00;99155.75;5070700;28;20531;-73
2022/04/09 04:55:03;;;;;;;0.40;0.30;;;;;;;3.38;100.00;99153.94;5070547;28;20177;-71
2022/04/09 04:57:30;;;;;;;0.57;0.57;;;;;;;3.33;100.00;99162.09;5070579;28;20239;-72
2022/04/09 04:59:58;;;;;;;0.97;0.87;;;;;;;3.31;100.00;99170.50;5070713;28;20689;-72
2022/04/09 05:02:23;;;;;;;0.63;0.63;;;;;;;3.27;100.00;99172.19;5070640;28;20694;-71
2022/04/09 05:04:49;;;;;;;7.30;0.60;;;;;;;3.26;100.00;99178.69;5070681;28;20253;-71
2022/04/09 05:07:14;;;;;;;1.47;0.80;;;;;;;3.23;100.00;99177.38;5070405;28;20695;-71
2022/04/09 05:09:40;;;;;;;2.70;0.87;;;;;;;3.26;100.00;99176.78;5070709;28;20265;-71
2022/04/09 05:12:05;;;;;;;0.97;0.97;;;;;;;3.29;100.00;99187.00;5070687;28;20167;-72
2022/04/09 05:14:30;;;;;;;0.67;0.67;;;;;;;3.37;100.00;99192.84;5070667;28;20179;-71
2022/04/09 05:16:57;;;;;;;1.23;1.23;;;;;;;3.41;100.00;99193.84;5070426;28;20563;-72
2022/04/09 05:19:23;;;;;;;4.60;1.10;;;;;;;3.43;100.00;99203.25;5070269;28;20657;-71
2022/04/09 05:21:48;;;;;;;0.37;0.20;;;;;;;3.47;100.00;99209.69;5069088;28;20178;-74
2022/04/09 05:24:13;;;;;;;15.03;1.57;;;;;;;3.50;100.00;99205.56;5072027;28;20185;-71
2022/04/09 05:26:39;;;;;;;9.73;1.23;;;;;;;3.50;100.00;99209.06;5074439;28;20178;-71
2022/04/09 05:29:04;;;;;;;7.23;1.70;;;;;;;3.54;100.00;99217.38;5074236;28;20665;-71
2022/04/09 05:31:29;;;;;;;6.53;3.63;;;;;;;3.56;100.00;99226.78;5074446;28;20189;-71
2022/04/09 05:33:55;;;;;;;1.33;0.90;;;;;;;3.62;100.00;99229.41;5074311;28;20637;-71
2022/04/09 05:36:21;;;;;;;29.20;2.17;;;;;;;3.60;100.00;99229.69;5074430;28;20491;-71
2022/04/09 05:38:46;;;;;;;5.57;1.73;;;;;;;3.59;100.00;99244.28;5073830;28;20254;-71
2022/04/09 05:41:11;;;;;;;1.17;1.17;;;;;;;3.56;100.00;99245.69;5073839;28;20182;-71
2022/04/09 05:43:37;;;;;;;1.40;0.90;;;;;;;3.50;100.00;99237.97;5073788;28;20182;-71
2022/04/09 05:46:02;;;;;;;2.07;1.00;;;;;;;3.44;100.00;99245.34;5072397;28;20648;-71
2022/04/09 05:48:27;;;;;;;6.50;0.83;;;;;;;3.38;100.00;99259.22;5071945;28;20208;-72
2022/04/09 05:50:53;;;;;;;1.07;1.07;;;;;;;3.34;100.00;99258.22;5073554;28;20261;-71
2022/04/09 05:53:18;;;;;;;1.83;1.43;;;;;;;3.35;100.00;99259.81;5073855;28;20178;-71
2022/04/09 05:55:43;;;;;;;1.03;1.03;;;;;;;3.39;100.00;99272.41;5071315;28;20583;-71
2022/04/09 05:58:09;;;;;;;4.60;1.27;;;;;;;3.40;100.00;99274.03;5072504;28;20189;-73
2022/04/09 06:00:34;;;;;;;0.60;0.57;;;;;;;3.40;100.00;99273.22;5073888;28;20286;-71
2022/04/09 06:03:01;;;;;;;0.93;0.93;;;;;;;3.40;100.00;99284.81;5073841;28;20274;-71
2022/04/09 06:05:27;;;;;;;1.00;0.70;;;;;;;3.44;100.00;99290.44;5072469;28;20178;-70
2022/04/09 06:07:53;;;;;;;0.77;0.70;;;;;;;3.51;100.00;99283.59;5073653;28;20575;-71
2022/04/09 06:10:19;;;;;;;7.03;1.50;;;;;;;3.62;100.00;99296.91;5073788;28;20190;-73
2022/04/09 06:12:45;;;;;;;1.07;0.90;;;;;;;3.70;100.00;99296.25;5073798;28;20566;-71
2022/04/09 06:15:10;;;;;;;7.30;0.80;;;;;;;3.77;100.00;99299.41;5073650;28;20182;-70
2022/04/09 06:17:37;;;;;;;1.30;1.30;;;;;;;3.83;99.96;99300.91;5073518;28;20178;-71
2022/04/09 06:20:04;;;;;;;2.30;2.20;;;;;;;3.93;99.73;99321.56;5073678;28;20329;-71
2022/04/09 06:22:30;;;;;;;0.30;0.30;;;;;;;4.04;99.45;99315.69;5073647;28;20179;-72
2022/04/09 06:24:55;;;;;;;0.70;0.70;;;;;;;4.06;97.77;99321.63;5073167;28;20171;-72
2022/04/09 06:27:20;;;;;;;2.83;1.73;;;;;;;4.06;97.72;99335.13;5073263;28;20227;-72
2022/04/09 06:29:45;;;;;;;2.87;1.37;;;;;;;4.04;96.55;99331.88;5073457;28;20189;-72
2022/04/09 06:32:12;;;;;;;0.90;0.90;;;;;;;4.09;96.50;99331.03;5073491;28;20216;-71
2022/04/09 06:34:37;;;;;;;0.67;0.67;;;;;;;4.11;96.63;99343.13;5073393;28;20171;-72
2022/04/09 06:37:03;;;;;;;8.20;1.90;;;;;;;4.15;95.42;99343.34;5072467;28;20705;-72
2022/04/09 06:39:28;;;;;;;4.60;0.67;;;;;;;4.21;95.32;99346.78;5073249;28;20190;-73
2022/04/09 06:41:54;;;;;;;1.80;1.17;;;;;;;4.25;95.33;99339.69;5073222;28;20646;-75
2022/04/09 06:44:19;;;;;;;0.90;0.83;;;;;;;4.29;94.21;99340.69;5073179;28;20257;-75
2022/04/09 06:46:46;;;;;;;0.87;0.87;;;;;;;4.35;93.66;99347.63;5073081;28;20240;-71
2022/04/09 06:49:15;;;;;;;0.87;0.87;;;;;;;4.38;93.85;99349.72;5072894;28;20175;-73
2022/04/09 06:51:41;;;;;;;0.40;0.40;;;;;;;4.49;94.07;99359.25;5072988;28;20265;-71
2022/04/09 06:54:07;;;;;;;2.30;0.30;;;;;;;4.58;93.71;99357.47;5073027;28;20663;-72
2022/04/09 06:56:32;;;;;;;1.60;1.37;;;;;;;4.65;92.96;99365.19;5072886;28;20174;-75
2022/04/09 06:58:58;;;;;;;0.43;0.43;;;;;;;4.79;92.43;99368.72;5073124;28;20188;-74
2022/04/09 07:01:23;;;;;;;2.87;0.50;;;;;;;4.93;92.69;99374.16;5073018;28;20170;-71
2022/04/09 07:03:48;;;;;;;25.13;1.03;;;;;;;4.85;91.16;99380.25;5072934;28;20171;-74
2022/04/09 07:06:16;;;;;;;0.77;0.77;;;;;;;4.76;90.43;99372.81;5072586;28;20175;-71
2022/04/09 07:08:41;;;;;;;0.87;0.77;;;;;;;4.73;90.74;99388.84;5072516;28;20190;-71
2022/04/09 07:11:07;;;;;;;2.83;1.00;;;;;;;4.73;91.16;99395.06;5072727;28;20174;-74
2022/04/09 07:13:32;;;;;;;1.40;0.53;;;;;;;4.70;91.07;99390.25;5072913;28;20174;-73
2022/04/09 07:15:57;;;;;;;0.50;0.50;;;;;;;4.63;91.36;99391.72;5072521;28;20179;-73
2022/04/09 07:18:23;;;;;;;6.90;0.60;;;;;;;4.61;90.88;99397.44;5071010;28;20178;-70
2022/04/09 07:20:49;;;;;;;0.63;0.43;;;;;;;4.57;90.77;99401.03;5072768;28;20224;-71
2022/04/09 07:23:14;;;;;;;3.60;0.97;;;;;;;4.58;90.61;99397.22;5072321;28;20194;-71
2022/04/09 07:25:42;;;;;;;1.20;0.70;;;;;;;4.70;89.49;99397.56;5072136;28;20171;-71
2022/04/09 07:28:07;;;;;;;1.10;1.10;;;;;;;4.88;89.46;99402.09;5072167;28;20186;-73
2022/04/09 07:30:33;;;;;;;0.60;0.60;;;;;;;5.03;89.23;99403.69;5072016;28;20206;-74
2022/04/09 07:32:58;;;;;;;1.20;1.20;;;;;;;5.00;86.97;99409.72;5072106;28;20270;-72
2022/04/09 07:35:24;;;;;;;0.30;0.23;;;;;;;5.13;86.63;99408.13;5072184;28;20196;-73
2022/04/09 07:37:51;;;;;;;0.87;0.87;;;;;;;5.32;85.54;99408.81;5071936;28;20174;-73
2022/04/09 07:40:18;;;;;;;3.00;0.87;;;;;;;5.42;85.07;99414.03;5072068;28;20179;-71
2022/04/09 07:42:45;;;;;;;1.40;0.57;;;;;;;5.34;83.83;99412.03;5071909;28;20654;-71
2022/04/09 07:45:12;;;;;;;2.27;0.90;;;;;;;5.36;83.45;99413.34;5071868;28;20179;-71
2022/04/09 07:47:37;;;;;;;0.30;0.30;;;;;;;5.28;81.46;99418.66;5071428;28;20545;-71
2022/04/09 07:50:06;;;;;;;6.37;1.80;;;;;;;5.29;81.45;99422.97;5072050;28;20261;-72
2022/04/09 07:52:31;;;;;;;0.10;0.10;;;;;;;5.41;83.68;99425.16;5071633;28;20192;-71
2022/04/09 07:54:57;;;;;;;4.33;1.03;;;;;;;5.31;82.55;99434.28;5071804;28;20167;-71
2022/04/09 07:57:27;;;;;;;0.17;0.17;;;;;;;5.30;83.07;99430.78;5071587;28;20183;-71
2022/04/09 07:59:55;;;;;;;5.97;2.07;;;;;;;5.27;83.15;99431.41;5072304;28;20534;-72
2022/04/09 08:02:21;;;;;;;3.87;0.53;;;;;;;5.30;83.50;99440.81;5071867;28;20170;-71
2022/04/09 08:04:46;;;;;;;1.17;0.83;;;;;;;5.48;83.56;99429.06;5071601;28;20653;-72
2022/04/09 08:07:11;;;;;;;1.10;0.90;;;;;;;5.48;82.67;99439.09;5070210;28;20213;-71
2022/04/09 08:09:36;;;;;;;2.40;0.93;;;;;;;5.52;83.38;99445.53;5071555;28;20167;-71
2022/04/09 08:12:02;;;;;;;5.60;0.53;;;;;;;5.59;82.95;99445.91;5071402;28;20622;-72
2022/04/09 08:14:27;;;;;;;19.47;1.43;;;;;;;5.60;82.23;99464.56;5071612;28;20167;-71
2022/04/09 08:16:52;;;;;;;6.50;0.50;;;;;;;5.40;82.15;99453.38;5071444;28;20522;-72
2022/04/09 08:19:18;;;;;;;0.30;0.30;;;;;;;5.36;81.95;99453.16;5071202;28;20645;-71
2022/04/09 08:21:44;;;;;;;0.40;0.40;;;;;;;5.40;82.73;99456.06;5071318;28;20173;-71
2022/04/09 08:24:10;;;;;;;0.60;0.57;;;;;;;5.47;81.87;99459.16;5070887;28;20475;-71
2022/04/09 08:26:36;;;;;;;0.60;0.60;;;;;;;5.57;81.77;99465.19;5071021;28;20175;-72
2022/04/09 08:29:03;;;;;;;0.63;0.63;;;;;;;5.63;82.07;99463.16;5071016;28;20198;-74
2022/04/09 08:31:28;;;;;;;0.10;0.10;;;;;;;5.54;82.15;99465.78;5071168;28;20592;-76
2022/04/09 08:33:54;;;;;;;5.63;0.77;;;;;;;5.48;81.47;99468.91;5071174;28;20179;-73
2022/04/09 08:36:19;;;;;;;2.47;0.37;;;;;;;5.52;81.39;99468.00;5071006;28;20167;-71
2022/04/09 08:38:44;;;;;;;0.40;0.40;;;;;;;5.54;80.47;99476.63;5070768;28;20201;-70
2022/04/09 08:41:14;;;;;;;2.30;0.30;;;;;;;5.62;77.94;99473.19;5069752;28;20210;-72
2022/04/09 08:43:39;;;;;;;0.60;0.60;;;;;;;5.75;77.48;99479.72;5070859;28;20811;-71
2022/04/09 08:46:04;;;;;;;1.70;0.33;;;;;;;5.82;76.89;99472.00;5070327;28;20514;-71
2022/04/09 08:48:31;;;;;;;2.43;1.30;;;;;;;5.97;75.22;99471.69;5069968;28;20194;-71
2022/04/09 08:50:57;;;;;;;0.70;0.50;;;;;;;5.93;74.87;99468.00;5070444;28;20198;-73
2022/04/09 08:53:23;;;;;;;1.93;0.37;;;;;;;5.90;74.43;99463.16;5070452;28;20182;-72
2022/04/09 08:55:50;;;;;;;1.13;0.80;;;;;;;5.88;75.83;99469.97;5070387;28;20193;-73
2022/04/09 08:58:15;;;;;;;0.60;0.60;;;;;;;5.82;76.35;99466.56;5069479;28;20224;-73
2022/04/09 09:00:42;;;;;;;0.43;0.30;;;;;;;5.87;76.58;99471.06;5067704;28;20198;-72
2022/04/09 09:03:10;;;;;;;0.70;0.70;;;;;;;5.95;78.26;99478.53;5069557;28;20178;-72
2022/04/09 09:05:41;;;;;;;3.37;1.20;;;;;;;5.94;77.20;99482.34;5069758;28;20185;-72
2022/04/09 09:08:08;;;;;;;0.93;0.93;;;;;;;6.00;77.19;99489.25;5070128;28;20217;-72
2022/04/09 09:10:35;;;;;;;0.60;0.50;;;;;;;6.23;77.77;99487.41;5070943;28;20179;-71
2022/04/09 09:13:11;;;;;;;0.13;0.13;;;;;;;6.20;76.90;99504.25;5070493;28;20730;-72
2022/04/09 09:15:47;;;;;;;1.77;0.77;;;;;;;5.79;78.74;99497.00;5070679;28;20495;-73
2022/04/09 09:18:27;;;;;;;2.50;0.50;;;;;;;6.06;79.95;99514.34;5070095;28;20269;-72
2022/04/09 09:20:57;;;;;;;2.73;0.40;;;;;;;6.43;80.36;99508.63;5070757;28;20227;-72
2022/04/09 09:23:33;;;;;;;0.37;0.33;;;;;;;6.52;79.02;99506.78;5069735;28;20209;-72
2022/04/09 09:26:00;;;;;;;0.70;0.70;;;;;;;6.37;77.52;99500.94;5070882;28;20170;-72
2022/04/09 09:28:28;;;;;;;0.53;0.53;;;;;;;6.23;77.42;99509.09;5070116;28;20213;-72
2022/04/09 09:30:55;;;;;;;1.13;0.40;;;;;;;6.30;76.75;99511.38;5070042;28;20795;-71
2022/04/09 09:33:20;;;;;;;0.87;0.60;;;;;;;6.48;76.26;99513.91;5070430;28;20622;-72
2022/04/09 09:35:49;;;;;;;6.23;0.70;;;;;;;6.63;74.83;99507.34;5070025;28;20178;-72
2022/04/09 09:38:28;;;;;;;1.70;0.40;;;;;;;6.47;75.08;99498.75;5070025;28;20163;-71
2022/04/09 09:40:55;;;;;;;3.13;0.57;;;;;;;6.59;76.15;99508.25;5069905;28;20182;-71
2022/04/09 09:43:22;;;;;;;0.50;0.47;;;;;;;6.89;75.98;99498.56;5070062;28;20175;-72
2022/04/09 09:45:49;;;;;;;0.20;0.20;;;;;;;7.05;73.04;99503.31;5070378;28;20566;-72
2022/04/09 09:48:28;;;;;;;0.30;0.30;;;;;;;7.14;69.68;99515.03;5069642;28;20701;-71
2022/04/09 09:50:56;;;;;;;2.93;0.57;;;;;;;7.25;69.44;99506.63;5069894;28;20179;-72
2022/04/09 09:53:29;;;;;;;0.10;0.10;;;;;;;7.18;68.46;99506.25;5069813;28;20185;-72
2022/04/09 09:55:56;;;;;;;4.17;0.33;;;;;;;7.09;69.56;99507.03;5069792;28;20209;-72
2022/04/09 09:58:22;;;;;;;0.30;0.30;;;;;;;6.97;69.99;99511.41;5069539;28;20220;-72
2022/04/09 10:00:48;;;;;;;1.03;0.80;;;;;;;6.94;72.00;99517.44;5069576;28;20631;-72
2022/04/09 10:03:16;;;;;;;0.10;0.10;;;;;;;7.01;71.67;99512.38;5069781;28;20175;-72
2022/04/09 10:05:42;;;;;;;1.13;0.60;;;;;;;7.38;72.60;99508.44;5069668;28;20475;-72
2022/04/09 10:08:08;;;;;;;0.63;0.63;;;;;;;7.41;72.34;99507.81;5069295;28;20225;-72
2022/04/09 10:10:38;;;;;;;3.10;0.40;;;;;;;7.61;70.98;99509.97;5071832;28;20638;-73
2022/04/09 10:13:04;;;;;;;0.20;0.20;;;;;;;7.80;70.41;99512.41;5073090;28;20174;-71
2022/04/09 10:15:30;;;;;;;0.80;0.23;;;;;;;7.61;68.37;99520.81;5073130;28;20189;-72
2022/04/09 10:17:57;;;;;;;0.30;0.30;;;;;;;7.25;71.07;99521.00;5072976;28;20205;-71
2022/04/09 10:20:25;;;;;;;0.43;0.43;;;;;;;6.84;74.79;99540.22;5073308;28;20676;-71
2022/04/09 10:22:55;;;;;;;0.40;0.23;;;;;;;6.53;77.86;99527.38;5073114;28;20193;-71
2022/04/09 10:25:24;;;;;;;1.73;0.80;;;;;;;6.57;79.32;99522.94;5072626;28;20501;-73
2022/04/09 10:27:53;;;;;;;0.63;0.47;;;;;;;6.85;77.89;99530.97;5072759;28;20676;-72
2022/04/09 10:30:19;;;;;;;0.80;0.50;;;;;;;7.18;76.49;99522.53;5072972;28;20170;-71
2022/04/09 10:32:48;;;;;;;0.90;0.50;;;;;;;7.36;74.46;99541.34;5072607;28;20642;-71
2022/04/09 10:35:40;;;;;;;0.10;0.10;;;;;;;6.98;73.24;99551.84;5072839;28;20685;-71
2022/04/09 10:38:08;;;;;;;2.80;0.20;;;;;;;6.52;76.59;99558.34;5072519;28;20613;-71
2022/04/09 10:40:34;;;;;;;0.70;0.70;;;;;;;5.68;83.62;99587.72;5072794;28;20811;-71
2022/04/09 10:43:01;;;;;;;2.00;0.50;;;;;;;5.39;88.45;99569.03;5072178;28;20685;-71
2022/04/09 10:45:29;;;;;;;0.83;0.30;;;;;;;5.36;91.36;99564.22;5072700;28;20674;-71
2022/04/09 10:48:14;;;;;;;0.20;0.20;;;;;;;5.38;92.92;99570.94;5072059;28;20583;-71
2022/04/09 10:50:54;;;;;;;0.23;0.23;;;;;;;5.55;94.01;99583.91;5072524;28;20480;-71
2022/04/09 10:53:22;;;;;;;0.50;0.30;;;;;;;5.50;93.76;99570.47;5072672;28;20257;-71
2022/04/09 10:56:17;;;;;;;0.00;0.00;;;;;;;5.92;93.17;99565.84;5072697;28;20162;-71
2022/04/09 10:59:05;;;;;;;0.20;0.20;;;;;;;6.26;91.12;99566.25;5072197;28;20661;-72
2022/04/09 11:01:46;;;;;;;0.27;0.27;;;;;;;6.37;88.40;99574.16;5072371;28;20170;-71
2022/04/09 11:04:27;;;;;;;0.33;0.33;;;;;;;6.55;87.19;99560.44;5072300;28;20227;-72
2022/04/09 11:07:16;;;;;;;0.17;0.17;;;;;;;6.58;86.21;99569.88;5072210;28;20179;-71
2022/04/09 11:09:54;;;;;;;0.73;0.60;;;;;;;6.65;84.83;99572.16;5072162;28;20214;-71
2022/04/09 11:12:30;;;;;;;0.60;0.60;;;;;;;6.83;84.82;99572.00;5071779;28;20169;-71
2022/04/09 11:15:01;;;;;;;0.33;0.33;;;;;;;6.99;84.53;99590.66;5072066;28;20170;-72
2022/04/09 11:17:35;;;;;;;0.30;0.30;;;;;;;7.03;83.12;99586.19;5071735;28;20598;-71
2022/04/09 11:20:16;;;;;;;2.20;0.60;;;;;;;6.84;81.80;99583.66;5072218;28;20170;-72
2022/04/09 11:22:43;;;;;;;0.83;0.50;;;;;;;6.77;81.18;99594.13;5071467;28;20244;-71
2022/04/09 11:25:22;;;;;;;0.10;0.10;;;;;;;6.67;80.75;99569.97;5071521;28;20509;-71
2022/04/09 11:27:48;;;;;;;0.97;0.40;;;;;;;6.61;81.60;99617.31;5071565;28;20209;-71
2022/04/09 11:30:14;;;;;;;1.53;0.37;;;;;;;6.43;83.61;99629.91;5071513;28;20175;-72
2022/04/09 11:32:40;;;;;;;0.50;0.50;;;;;;;5.69;84.95;99619.13;5071802;28;20428;-72
2022/04/09 11:35:10;;;;;;;0.40;0.10;;;;;;;5.35;88.70;99620.28;5072044;28;20170;-71